Terminal Aerodrome Forecast
Issued by NWS Blacksburg, VA

Home | Current Version | Previous Version | Text Only | Print | Product List | Glossary On
Versions: 1 2 3 4 5 6 7 8 9 10 11 12 13 14 15 16 17 18 19 20 21 22 23 24 25 26 27 28 29 30
000
FTUS41 KRNK 010520
TAFDAN
TAF
KDAN 010520Z 0106/0206 06004KT P6SM BKN050 OVC120
     FM011000 07003KT P6SM -FZRAPL SCT012 OVC025
     FM011200 06002KT 4SM -FZRA BR OVC007
     FM012100 18003KT 2SM BR OVC005=

USA.gov is the U.S. government's official web portal to all federal, state and local government web resources and services.